AirNav   Air Wisconsin Up To $57,000 Bonus
 
 1398 users online  

13FL Gator Lake Heliport
Zephyrhills, Florida, USA

GOING TO ZEPHYRHILLS?


FAA INFORMATION EFFECTIVE 02 JANUARY 2020

Location

FAA Identifier: 13FL
Lat/Long: 28-16-36.0210N 082-19-14.3150W
28-16.600350N 082-19.238583W
28.2766725,-82.3206431
(estimated)
Elevation: 110 ft. / 34 m (estimated)
Variation: 02W (1985)
From city: 13 miles W of ZEPHYRHILLS, FL
Time zone: UTC -5 (UTC -4 during Daylight Saving Time)
Zip code: 33544

Heliport Operations

Heliport use: Private use. Permission required prior to landing
Activation date: 08/1980
Control tower: no
ARTCC: MIAMI CENTER
FSS: SAINT PETERSBURG FLIGHT SERVICE STATION
Attendance: 0600-1800
Wind indicator: yes
Segmented circle: no

Heliport Communications

WX AWOS-3PT at ZPH (9 nm E): 118.975 (813-780-0031)
WX ASOS at BKV (14 nm NW): 134.725 (352-799-5881)
WX AWOS-3 at VDF (16 nm S): 121.125 (813-630-0924)
WX AWOS-3 at PCM (19 nm SE): 120.025 (813-764-8259)

Nearby radio navigation aids

VOR radial/distance  VOR name  Freq  Var
LALr316/23.8LAKELAND VORTAC116.0001E
PIEr046/29.3ST PETERSBURG VORTAC116.4005W

Heliport Services

Runway Information

Helipad H1

Dimensions: 500 x 200 ft. / 152 x 61 m
Surface: turf, in fair condition
Latitude: 28-16.600350N
Longitude: 082-19.238583W
Elevation: 110.0 ft.
Traffic pattern: leftleft
Markings: none, in fair condition
Obstructions: 15 ft. bldg

Heliport Ownership and Management from official FAA records

Ownership: Privately-owned
Owner: ANDREW SPADA, III
29951 ELAM RD.
ZEPHYRHILLS, FL 33544
Phone 813-973-1808
Manager: ANDREW SPADA, III
29951 ELAM RD
ZEPHYRHILLS, FL 33544
Phone 813-973-1808
ADDNL CTC: BILLIE SPADA 813-239-4796 BILLIESPADA@HOTMAIL.COM

Heliport Operational Statistics

Aircraft based on the field: 3
Helicopters: 3
    

Additional Remarks

FOR CD CTC TAMPA APCH AT 813-878-2528.

Instrument Procedures

There are no published instrument procedures at 13FL.

Some nearby airports with instrument procedures:

KZPH - Zephyrhills Municipal Airport (9 nm E)
KBKV - Brooksville-Tampa Bay Regional Airport (14 nm NW)
KVDF - Tampa Executive Airport (16 nm S)
KPCM - Plant City Airport (19 nm SE)
KTPA - Tampa International Airport (21 nm SW)
 
Loc | Ops | Rwys | IFR | FBO | Links
Com | Nav | Svcs | Stats | Notes


 
Area around 13FL (Gator Lake Heliport)
 
Road maps at: MapQuest Bing Google
 
Aerial photo
No photo
 
Sectional chart

 
Airport distance calculator
Flying to Gator Lake Heliport? Find the distance to fly.

From to 13FL

Sunrise and sunset
Times for 25-Jan-2020
 Local
(UTC-5)
 Zulu
(UTC)
Morning civil twilight06:5611:56
Sunrise07:2112:21
Sunset18:0223:02
Evening civil twilight18:2723:27

Current date and time
Zulu (UTC)  25-Jan-2020 15:41:55
Local (UTC-5)  25-Jan-2020 10:41:55
 
METAR
KZPH 
9nm E 
251515Z AUTO 33008G14KT 10SM CLR 17/04 A3018 RMK A02 LTG DSNT E T01690039
KBKV 
13nm NW 
251453Z 32008KT 10SM CLR 16/06 A3017 RMK AO2 SLP215 T01610061 51020
KVDF 
16nm S 
251515Z AUTO 36009KT 10SM CLR 17/05 A3018 RMK AO2
KPCM 
19nm SE 
251515Z AUTO 36007G14KT 10SM CLR 17/07 A3019 RMK AO2
TAF
KTPA 
22nm SW 
251135Z 2512/2618 35009KT P6SM SKC FM252000 31011KT P6SM SKC FM260400 36007KT P6SM FEW250 FM261400 03006KT P6SM FEW250
KLAL 
25nm SE 
251135Z 2512/2612 35006KT P6SM FEW020 BKN060 FM251400 34006KT P6SM FEW250 FM252100 31009KT P6SM SKC FM260300 VRB03KT P6SM FEW250
NOTAMs
Click for the latest NOTAMs
NOTAMs are issued by the DoD/FAA and will open in a separate window not controlled by AirNav.

 

 
 

Would you like to see your business listed on this page?

 If your business provides an interesting product or service to pilots, flight crews, aircraft, or users of the Gator Lake Heliport, you should consider listing it here.  To start the listing process, click on the button below
 
Add a business
 

Other Pages about Gator Lake Heliport

Update a link
 
Copyright © AirNav, LLC. All rights reserved. Privacy Policy  Contact